createdAt,value
2018-12-11T00:00:52.498Z,101171.09
2018-12-11T00:03:55.837Z,101186.88
2018-12-11T00:07:00.770Z,101186.88
2018-12-11T00:10:04.384Z,101190.86
2018-12-11T00:13:07.671Z,101193.45
2018-12-11T00:16:10.962Z,101192.14
2018-12-11T00:19:14.226Z,101195.63
2018-12-11T00:22:17.412Z,101191.21
2018-12-11T00:25:20.704Z,101187.73
2018-12-11T00:28:24.028Z,101195.59
2018-12-11T00:31:27.299Z,101212.23
2018-12-11T00:34:30.483Z,101211.72
2018-12-11T00:37:33.722Z,101207.85
2018-12-11T00:40:36.922Z,101216.55
2018-12-11T00:43:40.142Z,101215.20
2018-12-11T00:46:43.415Z,101213.92
2018-12-11T00:49:46.594Z,101216.94
2018-12-11T00:52:49.761Z,101216.09
2018-12-11T00:55:53.016Z,101223.05
2018-12-11T00:58:56.290Z,101226.61
2018-12-11T04:50:11.423Z,101459.55
2018-12-11T04:53:14.719Z,101461.77
2018-12-11T04:56:18.172Z,101466.27
2018-12-11T04:59:28.212Z,101465.38
2018-12-11T05:02:31.465Z,101475.98
2018-12-11T05:05:34.635Z,101470.62
2018-12-11T05:08:37.877Z,101470.55
2018-12-11T05:11:41.065Z,101472.84
2018-12-11T05:14:44.319Z,101469.73
2018-12-11T05:17:47.489Z,101469.74
2018-12-11T05:20:50.641Z,101477.27
2018-12-11T05:23:53.821Z,101477.27
2018-12-11T05:26:57.029Z,101485.19
2018-12-11T05:30:00.189Z,101485.66
2018-12-11T05:33:03.351Z,101493.02
2018-12-11T05:36:06.530Z,101500.92
2018-12-11T05:39:09.693Z,101492.66
2018-12-11T05:42:13.267Z,101505.05
2018-12-11T05:45:16.592Z,101509.48
2018-12-11T05:48:20.251Z,101511.18
2018-12-11T05:51:23.697Z,101514.48
2018-12-11T05:54:26.847Z,101511.77
2018-12-11T05:57:30.069Z,101517.42
2018-12-11T06:00:33.293Z,101520.02
2018-12-11T06:03:36.521Z,101515.09
2018-12-11T06:06:39.822Z,101522.59
2018-12-11T06:09:43.191Z,101521.78
2018-12-11T06:12:46.464Z,101527.33
2018-12-11T06:15:49.847Z,101528.55
2018-12-11T06:18:53.663Z,101531.50
2018-12-11T06:21:56.935Z,101530.67
2018-12-11T06:25:00.349Z,101540.84
2018-12-11T06:28:03.693Z,101535.91
2018-12-11T06:31:06.963Z,101538.83
2018-12-11T06:34:10.148Z,101544.06
2018-12-11T06:37:13.374Z,101538.81
2018-12-11T06:40:19.784Z,101542.67
2018-12-11T06:43:23.073Z,101551.94
2018-12-11T06:46:26.296Z,101550.22
2018-12-11T06:49:31.362Z,101548.03
2018-12-11T06:52:34.754Z,101551.06
2018-12-11T06:55:39.209Z,101550.22
2018-12-11T06:58:42.451Z,101554.98
2018-12-11T07:01:45.888Z,101554.92
2018-12-11T07:04:49.083Z,101563.20
2018-12-11T07:07:52.316Z,101574.09
2018-12-11T07:10:56.909Z,101570.13
2018-12-11T07:14:01.649Z,101577.50
2018-12-11T07:17:05.001Z,101578.81
2018-12-11T07:20:08.572Z,101581.42
2018-12-11T07:23:11.861Z,101579.73
2018-12-11T07:26:15.151Z,101587.16
2018-12-11T07:29:18.506Z,101593.74
2018-12-11T07:32:22.237Z,101600.28
2018-12-11T07:35:25.617Z,101600.81
2018-12-11T07:38:28.837Z,101602.05
2018-12-11T07:41:32.165Z,101608.59
2018-12-11T07:44:35.427Z,101608.99
2018-12-11T07:47:38.907Z,101616.87
2018-12-11T07:50:42.075Z,101620.78
2018-12-11T07:53:46.334Z,101617.24
2018-12-11T07:56:49.491Z,101624.44
2018-12-11T07:59:54.762Z,101630.48
2018-12-11T08:02:58.430Z,101638.76
2018-12-11T08:06:02.660Z,101641.38
2018-12-11T08:09:07.540Z,101650.59
2018-12-11T08:12:11.344Z,101651.09
2018-12-11T08:15:14.648Z,101650.37
2018-12-11T08:18:17.946Z,101657.00
2018-12-11T08:21:21.285Z,101666.77
2018-12-11T08:24:24.465Z,101664.53
2018-12-11T08:27:27.624Z,101672.91
2018-12-11T08:30:32.021Z,101678.22
2018-12-11T08:33:35.221Z,101676.48
2018-12-11T08:36:38.436Z,101676.51
2018-12-11T08:39:41.686Z,101677.50
2018-12-11T08:42:44.865Z,101681.52
2018-12-11T08:45:48.068Z,101690.87
2018-12-11T08:48:51.227Z,101687.91
2018-12-11T08:51:54.383Z,101685.11
2018-12-11T08:54:57.531Z,101685.31
2018-12-11T08:58:00.706Z,101689.81
2018-12-11T09:01:04.113Z,101689.22
2018-12-11T09:04:07.276Z,101683.78
2018-12-11T09:07:10.448Z,101685.84
2018-12-11T09:10:13.801Z,101696.45
2018-12-11T09:13:17.094Z,101696.20
2018-12-11T09:16:20.361Z,101695.41
2018-12-11T09:19:23.610Z,101693.27
2018-12-11T09:22:26.886Z,101692.76
2018-12-11T09:25:31.587Z,101696.53
2018-12-11T09:28:34.731Z,101700.69
2018-12-11T09:31:37.900Z,101701.70
2018-12-11T09:34:41.081Z,101711.42
2018-12-11T09:37:44.395Z,101710.02
2018-12-11T09:40:47.689Z,101719.39
2018-12-11T09:43:50.880Z,101720.20
2018-12-11T09:46:55.199Z,101721.05
2018-12-11T09:49:58.368Z,101725.89
2018-12-11T09:53:01.569Z,101728.34
2018-12-11T09:56:04.823Z,101728.28
2018-12-11T09:59:07.990Z,101732.98
2018-12-11T10:02:11.124Z,101736.98
2018-12-11T10:05:14.285Z,101738.87
2018-12-11T10:08:17.463Z,101735.27
2018-12-11T10:11:22.004Z,101742.56
2018-12-11T10:14:25.266Z,101734.30
2018-12-11T10:17:28.557Z,101743.11
2018-12-11T10:20:31.745Z,101754.47
2018-12-11T10:23:35.334Z,101747.54
2018-12-11T10:26:38.642Z,101755.47
2018-12-11T10:29:41.813Z,101756.84
2018-12-11T10:32:49.228Z,101760.44
2018-12-11T10:35:52.475Z,101762.20
2018-12-11T10:38:55.766Z,101759.27
2018-12-11T10:41:59.472Z,101762.02
2018-12-11T10:45:04.296Z,101762.92
2018-12-11T10:48:07.526Z,101761.67
2018-12-11T10:51:10.850Z,101762.92
2018-12-11T10:54:14.047Z,101756.28
2018-12-11T10:57:17.382Z,101765.14
2018-12-11T11:00:25.893Z,101762.98
2018-12-11T11:03:29.071Z,101762.21
2018-12-11T11:06:32.280Z,101769.72
2018-12-11T11:09:35.461Z,101770.69
2018-12-11T11:12:38.659Z,101767.75
2018-12-11T11:15:41.807Z,101764.93
2018-12-11T11:18:45.426Z,101773.74
2018-12-11T11:21:49.719Z,101777.83
2018-12-11T11:24:52.990Z,101778.73
2018-12-11T11:27:56.345Z,101778.00
2018-12-11T11:30:59.715Z,101772.69
2018-12-11T11:34:02.983Z,101766.56
2018-12-11T11:37:06.155Z,101779.02
2018-12-11T11:40:09.395Z,101779.02
2018-12-11T11:43:12.694Z,101781.75
2018-12-11T11:46:15.954Z,101782.70
2018-12-11T11:49:19.149Z,101776.05
2018-12-11T11:52:22.389Z,101782.13
2018-12-11T11:55:25.555Z,101782.55
2018-12-11T11:58:28.716Z,101780.95
2018-12-11T12:01:31.913Z,101793.69
2018-12-11T12:04:35.237Z,101786.75
2018-12-11T12:07:38.408Z,101789.02
2018-12-11T12:10:41.624Z,101801.74
2018-12-11T12:13:44.810Z,101801.13
2018-12-11T12:16:48.010Z,101798.69
2018-12-11T12:19:51.201Z,101807.67
2018-12-11T12:22:54.386Z,101811.03
2018-12-11T12:25:57.568Z,101818.06
2018-12-11T12:29:00.733Z,101819.91
2018-12-11T12:32:03.977Z,101824.70
2018-12-11T12:35:07.549Z,101820.32
2018-12-11T12:38:10.993Z,101831.41
2018-12-11T12:41:14.972Z,101832.02
2018-12-11T12:44:18.188Z,101834.18
2018-12-11T12:47:21.342Z,101850.06
2018-12-11T12:50:24.566Z,101845.69
2018-12-11T12:53:28.006Z,101852.06
2018-12-11T12:56:31.182Z,101866.47
2018-12-11T12:59:34.387Z,101867.44
2018-12-11T13:02:37.589Z,101868.73
2018-12-11T13:05:40.776Z,101876.00
2018-12-11T13:08:43.970Z,101872.93
2018-12-11T13:11:47.238Z,101872.15
2018-12-11T13:14:50.431Z,101882.70
2018-12-11T13:17:53.611Z,101888.96
2018-12-11T13:20:56.940Z,101886.18
2018-12-11T13:24:00.245Z,101884.80
2018-12-11T13:27:03.555Z,101892.77
2018-12-11T13:30:06.913Z,101909.86
2018-12-11T13:33:10.122Z,101907.42
2018-12-11T13:36:13.470Z,101918.63
2018-12-11T13:39:17.013Z,101915.63
2018-12-11T13:42:20.274Z,101924.67
2018-12-11T13:45:23.578Z,101932.38
2018-12-11T13:48:26.838Z,101928.05
2018-12-11T13:51:30.014Z,101923.55
2018-12-11T13:54:33.209Z,101927.38
2018-12-11T13:57:36.408Z,101935.22
2018-12-11T14:00:40.718Z,101928.08
2018-12-11T14:03:43.907Z,101932.73
2018-12-11T14:06:47.080Z,101939.05
2018-12-11T14:09:50.361Z,101935.64
2018-12-11T14:12:53.657Z,101937.16
2018-12-11T14:15:56.922Z,101944.24
2018-12-11T14:19:02.223Z,101945.94
2018-12-11T14:22:05.532Z,101946.95
2018-12-11T14:25:08.876Z,101944.25
2018-12-11T14:28:12.122Z,101949.89
2018-12-11T14:31:15.458Z,101948.14
2018-12-11T14:34:18.648Z,101949.36
2018-12-11T14:37:21.835Z,101950.84
2018-12-11T14:40:25.148Z,101947.78
2018-12-11T14:43:28.335Z,101953.97
2018-12-11T14:46:31.520Z,101953.98
2018-12-11T14:49:34.711Z,101958.06
2018-12-11T14:52:37.881Z,101960.59
2018-12-11T14:55:41.049Z,101964.30
2018-12-11T14:58:44.218Z,101972.23
2018-12-11T15:01:47.395Z,101975.83
2018-12-11T15:04:50.559Z,101971.94
2018-12-11T15:07:54.160Z,101973.13
2018-12-11T15:10:57.323Z,101979.77
2018-12-11T15:14:00.504Z,101984.02
2018-12-11T15:17:03.773Z,101989.86
2018-12-11T15:20:08.536Z,101983.99
2018-12-11T15:23:11.714Z,101989.86
2018-12-11T15:26:14.983Z,101988.11
2018-12-11T15:29:18.222Z,101990.83
2018-12-11T15:32:21.436Z,101993.06
2018-12-11T15:35:24.596Z,101997.09
2018-12-11T15:38:27.744Z,102000.30
2018-12-11T15:41:30.897Z,101997.67
2018-12-11T15:44:34.082Z,102004.66
2018-12-11T15:47:37.247Z,102008.45
2018-12-11T15:50:40.419Z,102010.17
2018-12-11T15:53:43.915Z,102013.98
2018-12-11T15:56:47.650Z,102026.36
2018-12-11T15:59:50.946Z,102025.53
2018-12-11T16:02:54.129Z,102025.88
2018-12-11T16:05:57.299Z,102032.30
2018-12-11T16:09:00.484Z,102033.30
2018-12-11T16:12:04.023Z,102029.44
2018-12-11T16:15:07.466Z,102035.12
2018-12-11T16:18:10.875Z,102034.97
2018-12-11T16:21:14.127Z,102049.27
2018-12-11T16:24:17.339Z,102049.69
2018-12-11T16:27:20.589Z,102053.80
2018-12-11T16:30:24.042Z,102052.05
2018-12-11T16:33:27.455Z,102047.96
2018-12-11T16:36:30.818Z,102054.55
2018-12-11T16:39:33.997Z,102054.76
2018-12-11T16:42:37.171Z,102064.41
2018-12-11T16:45:40.387Z,102065.86
2018-12-11T16:48:43.554Z,102063.44
2018-12-11T16:51:46.740Z,102063.83
2018-12-11T16:54:49.956Z,102076.89
2018-12-11T16:57:53.228Z,102075.13
2018-12-11T17:00:56.479Z,102088.23
2018-12-11T17:03:59.733Z,102089.23
2018-12-11T17:07:03.003Z,102087.50
2018-12-11T17:10:07.881Z,102089.62
2018-12-11T17:13:11.155Z,102088.10
2018-12-11T17:16:15.397Z,102092.89
2018-12-11T17:19:18.601Z,102095.41
2018-12-11T17:22:21.870Z,102105.38
2018-12-11T17:25:25.059Z,102107.52
2018-12-11T17:28:28.318Z,102108.89
2018-12-11T17:31:31.637Z,102111.06
2018-12-11T17:34:34.922Z,102112.58
2018-12-11T17:37:38.236Z,102114.80
2018-12-11T17:40:41.626Z,102110.00
2018-12-11T17:43:44.879Z,102109.31
2018-12-11T17:46:48.085Z,102112.63
2018-12-11T17:49:51.286Z,102118.62
2018-12-11T17:52:54.577Z,102119.37
2018-12-11T17:55:57.770Z,102127.13
2018-12-11T17:59:01.251Z,102128.05
2018-12-11T18:02:07.085Z,102138.14
2018-12-11T18:05:10.260Z,102135.48
2018-12-11T18:08:14.666Z,102142.08
2018-12-11T18:11:17.847Z,102148.48
2018-12-11T18:14:21.055Z,102150.06
2018-12-11T18:17:24.292Z,102145.70
2018-12-11T18:20:27.590Z,102147.00
2018-12-11T18:23:30.834Z,102154.10
2018-12-11T18:26:34.023Z,102156.69
2018-12-11T18:29:37.240Z,102161.71
2018-12-11T18:32:40.967Z,102167.05
2018-12-11T18:35:44.226Z,102163.91
2018-12-11T18:38:47.505Z,102170.47
2018-12-11T18:41:51.116Z,102167.14
2018-12-11T18:44:54.519Z,102177.18
2018-12-11T18:47:57.827Z,102181.64
2018-12-11T18:51:01.086Z,102188.20
2018-12-11T18:54:06.147Z,102186.50
2018-12-11T18:57:10.707Z,102187.90
2018-12-11T19:00:14.546Z,102188.02
2018-12-11T19:03:17.870Z,102192.02
2018-12-11T19:06:21.215Z,102190.66
2018-12-11T19:09:24.472Z,102191.80
2018-12-11T19:12:27.819Z,102195.30
2018-12-11T19:15:31.203Z,102191.92
2018-12-11T19:18:34.643Z,102193.52
2018-12-11T19:21:39.132Z,102191.69
2018-12-11T19:24:58.051Z,102192.50
2018-12-11T19:28:02.317Z,102190.89
2018-12-11T19:31:05.821Z,102194.02
2018-12-11T19:34:09.238Z,102197.94
2018-12-11T19:37:12.735Z,102209.98
2018-12-11T19:40:16.287Z,102203.67
2018-12-11T19:43:19.821Z,102212.86
2018-12-11T19:46:23.249Z,102208.67
2018-12-11T19:49:26.900Z,102209.34
2018-12-11T19:52:30.510Z,102217.67
2018-12-11T19:55:34.066Z,102226.72
2018-12-11T19:58:37.797Z,102227.36
2018-12-11T20:01:41.685Z,102232.05
2018-12-11T20:04:45.236Z,102223.52
2018-12-11T20:07:48.814Z,102232.38
2018-12-11T20:10:54.304Z,102228.48
2018-12-11T20:13:57.920Z,102227.48
2018-12-11T20:17:01.514Z,102232.67
2018-12-11T20:20:06.111Z,102240.08
2018-12-11T20:23:09.831Z,102241.86
2018-12-11T20:26:13.420Z,102245.72
2018-12-11T20:29:17.092Z,102243.17
2018-12-11T20:32:20.641Z,102238.16
2018-12-11T20:35:24.162Z,102245.73
2018-12-11T20:38:27.920Z,102242.63
2018-12-11T20:41:32.020Z,102246.56
2018-12-11T20:44:36.568Z,102249.59
2018-12-11T20:47:40.038Z,102248.28
2018-12-11T20:50:43.533Z,102257.53
2018-12-11T20:53:47.099Z,102252.54
2018-12-11T20:56:50.591Z,102244.02
2018-12-11T20:59:54.059Z,102254.83
2018-12-11T21:02:57.628Z,102250.39
2018-12-11T21:06:01.800Z,102254.77
2018-12-11T21:09:08.836Z,102254.97
2018-12-11T21:12:12.428Z,102262.67
2018-12-11T21:15:16.020Z,102256.42
2018-12-11T21:18:20.625Z,102262.75
2018-12-11T21:21:24.265Z,102264.98
2018-12-11T21:24:28.169Z,102272.62
2018-12-11T21:27:31.677Z,102268.78
2018-12-11T21:30:35.376Z,102272.53
2018-12-11T21:33:38.896Z,102271.00
2018-12-11T21:36:45.096Z,102266.67
2018-12-11T21:39:48.527Z,102263.70
2018-12-11T21:42:52.235Z,102269.00
2018-12-11T21:45:55.608Z,102270.92
2018-12-11T21:48:58.930Z,102276.01
2018-12-11T21:52:02.305Z,102279.66
2018-12-11T21:55:06.860Z,102274.13
2018-12-11T21:58:11.053Z,102280.84
2018-12-11T22:01:14.306Z,102285.18
2018-12-11T22:04:17.485Z,102280.75
2018-12-11T22:07:21.024Z,102283.05
2018-12-11T22:10:24.272Z,102290.57
2018-12-11T22:13:29.241Z,102284.56
2018-12-11T22:16:32.452Z,102284.40
2018-12-11T22:19:35.605Z,102285.10
2018-12-11T22:22:38.951Z,102293.60
2018-12-11T22:25:42.128Z,102289.75
2018-12-11T22:28:45.350Z,102295.69
2018-12-11T22:31:49.823Z,102298.37
2018-12-11T22:34:53.257Z,102303.48
2018-12-11T22:37:56.615Z,102303.54
2018-12-11T22:40:59.844Z,102306.45
2018-12-11T22:44:03.161Z,102307.03
2018-12-11T22:47:06.446Z,102308.11
2018-12-11T22:50:09.747Z,102307.43
2018-12-11T22:53:12.900Z,102311.88
2018-12-11T22:56:16.171Z,102316.77
2018-12-11T22:59:19.399Z,102321.27
2018-12-11T23:02:24.796Z,102321.95
2018-12-11T23:05:27.954Z,102333.96
2018-12-11T23:08:31.220Z,102337.27
2018-12-11T23:11:34.395Z,102346.33
2018-12-11T23:14:38.617Z,102350.30
2018-12-11T23:17:41.921Z,102351.61
2018-12-11T23:20:45.078Z,102357.69
2018-12-11T23:23:48.276Z,102359.64
2018-12-11T23:26:52.422Z,102366.80
2018-12-11T23:29:55.560Z,102369.02
2018-12-11T23:32:58.911Z,102375.61
2018-12-11T23:36:02.080Z,102374.91
2018-12-11T23:39:06.835Z,102385.84
2018-12-11T23:42:10.022Z,102387.36
2018-12-11T23:45:13.334Z,102388.08
2018-12-11T23:48:16.970Z,102378.91
2018-12-11T23:51:20.238Z,102390.84
2018-12-11T23:54:24.330Z,102394.08
2018-12-11T23:57:27.951Z,102399.67
